Reynoldsville, Illinois
Current Conditions -  °F | °C
As of 3:31 AM on Thursday 23 Oct 2014 (Local Time) from KCGI Reporting Station
Haze Haze  
Wind Chill: 37°   Ceiling: 200
Heat Index: 37°   Visibility: 0.75mi
Dew Point: 37°   Wind: 0mph
Humidity: 100%   Direction: NA
Pressure: 30.21"   Gusts: NA
Location:  37.4256°N, 89.3457°W
Report Text: KCGI 230831Z AUTO 00000KT 3/4SM BR VV002 03/03 A3021 RMK AO2 TSNO
Loading
Personal Weather Stations






























Interactive Weather Map
Tropical Storm Tracking
New forecast layout! Learn more

10-Day Weather Forecast

Advertisements
Track Severe Weather on mobile